createdAt,value
2023-02-08T00:00:54.782Z,5.60
2023-02-08T00:03:21.737Z,5.18
2023-02-08T00:05:48.670Z,4.28
2023-02-08T00:08:15.779Z,4.05
2023-02-08T00:10:44.605Z,5.32
2023-02-08T00:13:11.111Z,3.95
2023-02-08T00:15:44.950Z,3.78
2023-02-08T00:18:11.940Z,4.53
2023-02-08T00:20:40.499Z,4.45
2023-02-08T00:23:07.807Z,4.10
2023-02-08T00:25:35.098Z,3.67
2023-02-08T00:28:05.384Z,4.22
2023-02-08T00:30:35.921Z,4.15
2023-02-08T00:33:02.729Z,3.60
2023-02-08T00:35:29.449Z,3.92
2023-02-08T00:37:57.138Z,3.92
2023-02-08T00:40:24.005Z,3.40
2023-02-08T00:42:50.682Z,4.15
2023-02-08T00:45:17.515Z,3.95
2023-02-08T00:47:43.850Z,4.53
2023-02-08T00:50:10.950Z,4.45
2023-02-08T00:52:37.463Z,3.15
2023-02-08T00:55:05.066Z,3.67
2023-02-08T00:57:35.192Z,4.10
2023-02-08T01:00:02.227Z,4.07
2023-02-08T01:02:31.257Z,3.60
2023-02-08T01:05:00.100Z,4.05
2023-02-08T01:07:29.911Z,4.15
2023-02-08T01:10:00.004Z,3.95
2023-02-08T01:12:26.366Z,3.67
2023-02-08T01:14:52.967Z,4.65
2023-02-08T01:17:19.318Z,4.20
2023-02-08T01:19:45.666Z,5.18
2023-02-08T01:22:12.057Z,3.90
2023-02-08T01:24:38.450Z,4.35
2023-02-08T01:27:07.146Z,4.20
2023-02-08T01:29:36.134Z,4.65
2023-02-08T01:32:02.483Z,4.55
2023-02-08T01:34:33.514Z,4.50
2023-02-08T01:36:59.882Z,4.35
2023-02-08T01:39:26.420Z,4.32
2023-02-08T01:41:55.697Z,4.30
2023-02-08T01:45:00.129Z,4.88
2023-02-08T01:47:26.969Z,4.20
2023-02-08T01:49:53.545Z,4.82
2023-02-08T01:52:25.018Z,4.38
2023-02-08T01:54:57.637Z,3.67
2023-02-08T01:57:29.796Z,4.65
2023-02-08T02:00:03.820Z,4.88
2023-02-08T02:02:34.112Z,4.30
2023-02-08T02:05:01.585Z,4.28
2023-02-08T02:07:33.176Z,3.33
2023-02-08T02:10:14.610Z,5.07
2023-02-08T02:12:42.791Z,4.85
2023-02-08T02:15:10.335Z,3.72
2023-02-08T02:17:39.596Z,5.72
2023-02-08T02:20:28.499Z,4.85
2023-02-08T02:22:58.117Z,5.57
2023-02-08T02:25:41.804Z,4.65
2023-02-08T02:28:26.699Z,5.75
2023-02-08T02:31:02.181Z,5.10
2023-02-08T02:33:35.294Z,6.28
2023-02-08T02:36:13.627Z,7.28
2023-02-08T02:39:14.319Z,6.00
2023-02-08T02:42:10.577Z,5.80
2023-02-08T02:45:06.207Z,6.13
2023-02-08T02:47:52.890Z,6.50
2023-02-08T02:50:42.238Z,6.72
2023-02-08T02:53:36.590Z,5.32
2023-02-08T02:56:15.343Z,5.20
2023-02-08T02:58:44.427Z,6.90
2023-02-08T03:01:14.019Z,5.82
2023-02-08T03:03:42.757Z,5.53
2023-02-08T03:06:22.349Z,5.88
2023-02-08T03:09:30.920Z,5.47
2023-02-08T03:12:27.823Z,6.15
2023-02-08T03:15:22.025Z,5.60
2023-02-08T03:18:25.878Z,6.85
2023-02-08T03:21:01.206Z,6.57
2023-02-08T03:23:40.568Z,6.40
2023-02-08T03:26:20.408Z,6.47
2023-02-08T03:29:16.632Z,6.73
2023-02-08T03:31:57.978Z,6.68
2023-02-08T03:34:36.309Z,6.13
2023-02-08T03:37:10.097Z,6.88
2023-02-08T03:39:38.893Z,6.30
2023-02-08T03:42:12.187Z,6.25
2023-02-08T03:44:51.255Z,7.07
2023-02-08T03:47:24.836Z,7.07
2023-02-08T03:49:54.040Z,6.90
2023-02-08T03:52:24.448Z,6.87
2023-02-08T03:55:16.443Z,7.07
2023-02-08T03:57:52.864Z,7.23
2023-02-08T04:00:22.030Z,6.57
2023-02-08T04:03:02.832Z,7.90
2023-02-08T04:05:31.922Z,6.70
2023-02-08T04:07:58.257Z,7.80
2023-02-08T04:10:24.726Z,7.47
2023-02-08T04:12:51.355Z,9.10
2023-02-08T04:15:17.930Z,7.70
2023-02-08T04:17:44.520Z,7.37
2023-02-08T04:20:11.346Z,7.33
2023-02-08T04:22:37.848Z,6.43
2023-02-08T04:25:04.884Z,6.53
2023-02-08T04:27:31.377Z,7.33
2023-02-08T04:29:57.895Z,7.22
2023-02-08T04:32:24.260Z,8.00
2023-02-08T04:34:50.652Z,8.10
2023-02-08T04:37:17.136Z,6.68
2023-02-08T04:39:43.497Z,7.27
2023-02-08T04:42:09.989Z,6.03
2023-02-08T04:44:42.953Z,6.97
2023-02-08T04:47:09.321Z,8.17
2023-02-08T04:49:38.106Z,6.70
2023-02-08T04:52:06.402Z,6.13
2023-02-08T04:54:33.853Z,7.30
2023-02-08T04:57:13.363Z,7.40
2023-02-08T04:59:43.310Z,7.63
2023-02-08T05:02:12.219Z,7.30
2023-02-08T05:04:39.057Z,6.27
2023-02-08T05:07:07.544Z,7.67
2023-02-08T05:09:34.470Z,7.00
2023-02-08T05:12:03.575Z,8.10
2023-02-08T05:14:29.968Z,7.13
2023-02-08T05:16:56.505Z,6.57
2023-02-08T05:19:26.443Z,6.57
2023-02-08T05:21:53.040Z,6.63
2023-02-08T05:24:24.337Z,6.57
2023-02-08T05:26:50.943Z,6.77
2023-02-08T05:29:19.896Z,6.37
2023-02-08T05:31:46.589Z,7.37
2023-02-08T05:34:13.107Z,6.90
2023-02-08T05:36:39.665Z,7.20
2023-02-08T05:39:08.611Z,6.87
2023-02-08T05:41:35.060Z,8.33
2023-02-08T05:44:03.952Z,8.00
2023-02-08T05:46:30.615Z,6.90
2023-02-08T05:49:00.268Z,8.13
2023-02-08T05:51:26.861Z,7.07
2023-02-08T05:53:53.274Z,8.17
2023-02-08T05:56:19.929Z,8.07
2023-02-08T05:58:46.304Z,8.33
2023-02-08T06:01:13.921Z,11.40
2023-02-08T06:03:40.712Z,11.10
2023-02-08T06:06:07.995Z,9.73
2023-02-08T06:08:34.465Z,9.57
2023-02-08T06:11:01.164Z,8.87
2023-02-08T06:13:29.161Z,7.47
2023-02-08T06:15:56.548Z,8.67
2023-02-08T06:18:25.614Z,7.73
2023-02-08T06:20:55.434Z,8.07
2023-02-08T06:23:22.894Z,7.07
2023-02-08T06:25:52.721Z,8.00
2023-02-08T06:28:19.145Z,7.93
2023-02-08T06:30:45.740Z,7.60
2023-02-08T06:33:13.922Z,7.63
2023-02-08T06:35:46.341Z,7.60
2023-02-08T06:38:14.051Z,8.30
2023-02-08T06:40:40.972Z,7.87
2023-02-08T06:43:07.608Z,8.47
2023-02-08T06:45:36.594Z,8.23
2023-02-08T06:48:05.575Z,7.87
2023-02-08T06:50:32.482Z,8.17
2023-02-08T06:52:59.081Z,7.30
2023-02-08T06:55:25.461Z,8.50
2023-02-08T06:57:55.355Z,13.27
2023-02-08T07:00:22.243Z,12.53
2023-02-08T07:02:48.639Z,11.67
2023-02-08T07:05:15.236Z,10.00
2023-02-08T07:07:41.625Z,8.27
2023-02-08T07:10:08.189Z,9.00
2023-02-08T07:12:36.370Z,8.17
2023-02-08T07:15:03.936Z,8.43
2023-02-08T07:17:30.303Z,8.13
2023-02-08T07:19:57.295Z,8.83
2023-02-08T07:22:23.830Z,9.53
2023-02-08T07:24:50.294Z,7.83
2023-02-08T07:27:16.802Z,9.33
2023-02-08T07:29:43.216Z,8.37
2023-02-08T07:32:10.136Z,8.80
2023-02-08T07:34:53.093Z,9.23
2023-02-08T07:37:20.958Z,8.17
2023-02-08T07:39:47.593Z,8.50
2023-02-08T07:42:14.147Z,9.57
2023-02-08T07:44:45.644Z,8.13
2023-02-08T07:47:15.520Z,10.07
2023-02-08T07:49:41.987Z,9.27
2023-02-08T07:52:08.848Z,8.83
2023-02-08T07:54:41.423Z,8.53
2023-02-08T07:57:08.273Z,10.43
2023-02-08T07:59:37.306Z,10.13
2023-02-08T08:02:04.098Z,8.87
2023-02-08T08:04:30.471Z,8.75
2023-02-08T08:06:59.155Z,8.57
2023-02-08T08:09:25.612Z,8.40
2023-02-08T08:11:52.074Z,9.13
2023-02-08T08:14:18.540Z,22.55
2023-02-08T08:16:45.028Z,11.00
2023-02-08T08:19:11.652Z,11.90
2023-02-08T08:21:40.706Z,10.90
2023-02-08T08:24:07.226Z,10.82
2023-02-08T08:26:40.747Z,9.20
2023-02-08T08:29:07.258Z,9.15
2023-02-08T08:31:33.745Z,8.63
2023-02-08T08:34:00.132Z,8.52
2023-02-08T08:36:26.529Z,8.60
2023-02-08T08:38:53.033Z,8.05
2023-02-08T08:41:21.030Z,9.05
2023-02-08T08:43:49.867Z,7.53
2023-02-08T08:46:16.753Z,8.20
2023-02-08T08:48:43.421Z,8.30
2023-02-08T08:51:12.997Z,6.72
2023-02-08T08:53:39.696Z,6.63
2023-02-08T08:56:06.647Z,7.18
2023-02-08T08:58:33.118Z,7.20
2023-02-08T09:01:00.379Z,7.35
2023-02-08T09:03:27.703Z,13.55
2023-02-08T09:05:58.724Z,11.52
2023-02-08T09:08:25.265Z,24.42
2023-02-08T09:10:51.708Z,11.73
2023-02-08T09:13:21.697Z,8.13
2023-02-08T09:15:49.348Z,6.22
2023-02-08T09:18:16.244Z,8.25
2023-02-08T09:20:43.031Z,5.07
2023-02-08T09:23:09.743Z,6.55
2023-02-08T09:25:36.836Z,6.75
2023-02-08T09:28:03.717Z,6.97
2023-02-08T09:30:33.558Z,8.65
2023-02-08T09:32:59.994Z,6.85
2023-02-08T09:35:26.555Z,6.43
2023-02-08T09:37:55.398Z,6.68
2023-02-08T09:40:29.859Z,7.30
2023-02-08T09:43:31.903Z,8.02
2023-02-08T09:46:07.950Z,7.60
2023-02-08T09:48:40.407Z,16.67
2023-02-08T09:54:00.013Z,6.88
2023-02-08T09:56:41.827Z,6.10
2023-02-08T10:02:38.898Z,7.22
2023-02-08T10:05:16.998Z,6.28
2023-02-08T10:07:43.961Z,5.75
2023-02-08T10:10:35.749Z,5.78
2023-02-08T10:13:41.557Z,5.90
2023-02-08T10:16:23.480Z,5.22
2023-02-08T10:18:52.081Z,6.63
2023-02-08T10:21:48.794Z,6.07
2023-02-08T10:24:27.677Z,5.95
2023-02-08T10:27:08.950Z,6.15
2023-02-08T10:30:29.574Z,6.30
2023-02-08T10:33:07.153Z,6.53
2023-02-08T10:35:42.519Z,5.47
2023-02-08T10:38:24.988Z,6.07
2023-02-08T10:41:02.860Z,5.68
2023-02-08T10:43:38.175Z,5.63
2023-02-08T10:46:09.135Z,6.10
2023-02-08T10:48:35.517Z,5.95
2023-02-08T10:51:02.106Z,6.35
2023-02-08T10:53:28.617Z,5.75
2023-02-08T10:55:55.110Z,6.40
2023-02-08T10:58:28.980Z,5.53
2023-02-08T11:00:59.619Z,5.68
2023-02-08T11:03:31.195Z,5.22
2023-02-08T11:06:00.727Z,5.20
2023-02-08T11:08:44.553Z,4.72
2023-02-08T11:11:11.171Z,5.07
2023-02-08T11:13:40.656Z,5.63
2023-02-08T11:16:54.482Z,5.53
2023-02-08T11:19:49.899Z,5.20
2023-02-08T11:22:32.727Z,5.32
2023-02-08T11:25:08.078Z,4.57
2023-02-08T11:27:43.202Z,4.53
2023-02-08T11:30:19.503Z,4.65
2023-02-08T11:32:48.887Z,4.35
2023-02-08T11:35:23.935Z,5.07
2023-02-08T11:38:02.489Z,4.95
2023-02-08T11:40:35.966Z,4.82
2023-02-08T11:43:03.928Z,5.60
2023-02-08T11:45:33.967Z,5.25
2023-02-08T11:48:09.632Z,4.30
2023-02-08T11:50:44.094Z,4.80
2023-02-08T11:53:27.839Z,5.50
2023-02-08T11:56:22.630Z,5.03
2023-02-08T11:59:12.357Z,5.13
2023-02-08T12:01:41.576Z,4.78
2023-02-08T12:04:16.506Z,4.55
2023-02-08T12:06:55.227Z,5.07
2023-02-08T12:09:59.419Z,5.38
2023-02-08T12:12:43.769Z,5.75
2023-02-08T12:15:26.785Z,4.63
2023-02-08T12:18:31.649Z,4.65
2023-02-08T12:21:25.647Z,4.50
2023-02-08T12:24:46.076Z,4.65
2023-02-08T12:27:24.297Z,4.47
2023-02-08T12:29:55.321Z,3.85
2023-02-08T12:32:40.520Z,3.72
2023-02-08T12:35:10.311Z,3.80
2023-02-08T12:38:38.113Z,4.55
2023-02-08T12:41:17.905Z,3.83
2023-02-08T12:44:06.935Z,4.97
2023-02-08T12:46:56.268Z,3.53
2023-02-08T12:49:30.375Z,4.03
2023-02-08T12:52:21.223Z,3.85
2023-02-08T12:54:59.136Z,3.63
2023-02-08T12:57:31.963Z,3.60
2023-02-08T13:00:09.061Z,4.00
2023-02-08T13:02:46.078Z,3.28
2023-02-08T13:05:22.183Z,3.53
2023-02-08T13:07:58.416Z,4.03
2023-02-08T13:10:40.422Z,4.93
2023-02-08T13:13:21.722Z,4.68
2023-02-08T13:15:59.939Z,4.35
2023-02-08T13:18:53.521Z,4.72
2023-02-08T13:21:25.968Z,4.32
2023-02-08T13:26:33.286Z,3.60
2023-02-08T13:29:04.226Z,3.60
2023-02-08T13:31:58.191Z,4.55
2023-02-08T13:34:50.911Z,3.88
2023-02-08T13:37:31.536Z,3.28
2023-02-08T13:40:09.262Z,3.72
2023-02-08T13:42:43.988Z,3.40
2023-02-08T13:45:37.870Z,3.72
2023-02-08T13:48:13.595Z,3.97
2023-02-08T13:50:51.176Z,3.70
2023-02-08T13:53:25.419Z,3.85
2023-02-08T13:56:01.287Z,3.90
2023-02-08T13:58:48.020Z,4.28
2023-02-08T14:01:20.763Z,3.28
2023-02-08T14:04:12.585Z,4.55
2023-02-08T14:06:44.167Z,4.25
2023-02-08T14:09:24.702Z,4.00
2023-02-08T14:12:00.152Z,3.67
2023-02-08T14:14:40.080Z,3.63
2023-02-08T14:17:30.047Z,3.75
2023-02-08T14:20:06.824Z,3.65
2023-02-08T14:22:42.198Z,3.88
2023-02-08T14:25:19.583Z,3.55
2023-02-08T14:28:25.221Z,3.47
2023-02-08T14:30:58.730Z,4.25
2023-02-08T14:33:34.052Z,2.85
2023-02-08T14:36:08.251Z,3.03
2023-02-08T14:39:04.084Z,3.17
2023-02-08T14:42:04.072Z,3.70
2023-02-08T14:44:41.568Z,4.07
2023-02-08T14:47:25.846Z,3.92
2023-02-08T14:50:07.336Z,3.30
2023-02-08T14:52:35.488Z,3.33
2023-02-08T14:55:19.843Z,3.33
2023-02-08T14:57:46.609Z,3.05
2023-02-08T15:00:24.045Z,3.78
2023-02-08T15:03:00.504Z,3.78
2023-02-08T15:05:35.732Z,3.00
2023-02-08T15:08:10.595Z,3.90
2023-02-08T15:10:45.447Z,3.90
2023-02-08T15:13:21.705Z,4.13
2023-02-08T15:15:53.143Z,3.80
2023-02-08T15:18:25.068Z,3.58
2023-02-08T15:21:11.578Z,3.53
2023-02-08T15:23:40.387Z,3.75
2023-02-08T15:26:23.997Z,4.68
2023-02-08T15:29:05.312Z,3.88
2023-02-08T15:31:33.768Z,3.45
2023-02-08T15:34:02.348Z,4.50
2023-02-08T15:36:34.652Z,3.15
2023-02-08T15:39:24.782Z,4.53
2023-02-08T15:42:02.663Z,3.97
2023-02-08T15:44:37.934Z,3.92
2023-02-08T15:47:34.743Z,4.25
2023-02-08T15:50:03.161Z,4.10
2023-02-08T15:52:33.041Z,4.15
2023-02-08T15:54:59.562Z,4.43
2023-02-08T15:57:33.572Z,3.97
2023-02-08T16:00:01.569Z,4.32
2023-02-08T16:02:37.199Z,4.28
2023-02-08T16:05:18.041Z,5.88
2023-02-08T16:07:45.984Z,4.45
2023-02-08T16:10:36.900Z,5.05
2023-02-08T16:13:07.569Z,4.97
2023-02-08T16:16:03.810Z,4.72
2023-02-08T16:18:34.901Z,5.18
2023-02-08T16:21:16.118Z,5.40
2023-02-08T16:23:55.329Z,5.18
2023-02-08T16:26:33.705Z,5.03
2023-02-08T16:29:05.240Z,6.03
2023-02-08T16:31:35.809Z,5.50
2023-02-08T16:36:51.187Z,6.47
2023-02-08T16:39:17.914Z,6.55
2023-02-08T16:42:00.977Z,6.90
2023-02-08T16:44:39.084Z,6.35
2023-02-08T16:49:52.386Z,6.78
2023-02-08T16:52:19.370Z,6.47
2023-02-08T16:54:54.660Z,8.02
2023-02-08T16:57:24.409Z,7.18
2023-02-08T16:59:59.673Z,8.20
2023-02-08T17:02:31.376Z,7.75
2023-02-08T17:04:57.768Z,7.68
2023-02-08T17:07:29.732Z,7.40
2023-02-08T17:09:59.515Z,7.40
2023-02-08T17:12:34.407Z,8.38
2023-02-08T17:15:04.363Z,7.20
2023-02-08T17:17:34.990Z,6.35
2023-02-08T17:20:11.160Z,7.13
2023-02-08T17:22:37.582Z,7.45
2023-02-08T17:25:07.078Z,8.15
2023-02-08T17:27:33.887Z,7.70
2023-02-08T17:30:02.288Z,8.02
2023-02-08T17:32:31.274Z,7.90
2023-02-08T17:35:09.730Z,7.13
2023-02-08T17:37:36.724Z,7.50
2023-02-08T17:40:06.495Z,8.65
2023-02-08T17:42:33.181Z,9.20
2023-02-08T17:45:01.977Z,8.35
2023-02-08T17:47:33.474Z,7.90
2023-02-08T17:50:01.415Z,8.53
2023-02-08T17:52:30.456Z,8.77
2023-02-08T17:55:00.525Z,8.35
2023-02-08T17:57:29.619Z,8.35
2023-02-08T17:59:56.278Z,7.65
2023-02-08T18:02:24.866Z,7.43
2023-02-08T18:04:51.331Z,7.72
2023-02-08T18:07:25.626Z,8.82
2023-02-08T18:09:52.280Z,6.65
2023-02-08T18:12:28.718Z,6.70
2023-02-08T18:14:58.665Z,7.43
2023-02-08T18:17:25.227Z,7.70
2023-02-08T18:19:52.318Z,8.15
2023-02-08T18:22:22.101Z,7.80
2023-02-08T18:24:51.970Z,7.07
2023-02-08T18:27:18.568Z,8.02
2023-02-08T18:29:51.520Z,7.55
2023-02-08T18:32:20.437Z,8.13
2023-02-08T18:34:50.130Z,6.70
2023-02-08T18:37:20.377Z,7.40
2023-02-08T18:39:55.515Z,7.93
2023-02-08T18:42:22.105Z,7.25
2023-02-08T18:44:58.609Z,8.05
2023-02-08T18:47:25.257Z,7.57
2023-02-08T18:49:55.452Z,7.60
2023-02-08T18:52:23.650Z,7.40
2023-02-08T18:54:50.347Z,7.35
2023-02-08T18:57:16.840Z,7.72
2023-02-08T18:59:46.320Z,7.38
2023-02-08T19:02:22.166Z,7.88
2023-02-08T19:04:49.071Z,7.50
2023-02-08T19:07:16.345Z,7.93
2023-02-08T19:09:44.290Z,7.63
2023-02-08T19:12:13.543Z,8.43
2023-02-08T19:14:43.957Z,7.47
2023-02-08T19:17:12.444Z,9.00
2023-02-08T19:19:40.839Z,8.20
2023-02-08T19:22:07.269Z,8.75
2023-02-08T19:24:33.806Z,8.18
2023-02-08T19:27:03.468Z,11.15
2023-02-08T19:29:29.814Z,8.93
2023-02-08T19:31:58.387Z,8.13
2023-02-08T19:34:30.720Z,7.15
2023-02-08T19:37:01.933Z,7.47
2023-02-08T19:39:28.399Z,6.25
2023-02-08T19:41:55.480Z,7.30
2023-02-08T19:44:23.093Z,8.05
2023-02-08T19:46:54.871Z,9.10
2023-02-08T19:49:28.602Z,12.55
2023-02-08T19:52:02.511Z,8.00
2023-02-08T19:54:29.311Z,8.07
2023-02-08T19:57:01.138Z,7.40
2023-02-08T19:59:29.925Z,7.72
2023-02-08T20:01:56.845Z,6.65
2023-02-08T20:04:36.543Z,6.53
2023-02-08T20:07:07.129Z,7.35
2023-02-08T20:09:37.017Z,7.35
2023-02-08T20:12:04.148Z,6.95
2023-02-08T20:14:34.310Z,7.18
2023-02-08T20:17:11.039Z,6.40
2023-02-08T20:19:38.843Z,6.90
2023-02-08T20:22:07.946Z,6.43
2023-02-08T20:24:42.057Z,7.10
2023-02-08T20:27:11.542Z,6.03
2023-02-08T20:29:40.643Z,7.22
2023-02-08T20:32:08.142Z,6.72
2023-02-08T20:34:47.473Z,6.72
2023-02-08T20:37:22.944Z,7.05
2023-02-08T20:39:59.523Z,7.78
2023-02-08T20:42:25.885Z,8.40
2023-02-08T20:44:53.446Z,8.02
2023-02-08T20:47:23.207Z,7.70
2023-02-08T20:49:50.361Z,8.30
2023-02-08T20:52:28.801Z,7.90
2023-02-08T20:54:55.621Z,6.22
2023-02-08T20:57:22.403Z,6.95
2023-02-08T20:59:53.633Z,7.13
2023-02-08T21:02:23.324Z,6.18
2023-02-08T21:04:52.702Z,6.13
2023-02-08T21:07:27.299Z,6.57
2023-02-08T21:10:01.738Z,7.25
2023-02-08T21:12:30.385Z,5.82
2023-02-08T21:14:58.136Z,6.88
2023-02-08T21:17:24.776Z,6.72
2023-02-08T21:19:51.326Z,5.82
2023-02-08T21:22:20.660Z,6.88
2023-02-08T21:24:55.161Z,7.05
2023-02-08T21:27:29.364Z,7.50
2023-02-08T21:29:56.112Z,6.38
2023-02-08T21:32:25.088Z,7.07
2023-02-08T21:34:53.303Z,6.60
2023-02-08T21:37:22.050Z,6.57
2023-02-08T21:39:48.520Z,7.38
2023-02-08T21:42:15.004Z,7.00
2023-02-08T21:44:41.506Z,6.82
2023-02-08T21:47:08.017Z,7.18
2023-02-08T21:49:53.484Z,6.70
2023-02-08T21:52:51.960Z,6.57
2023-02-08T21:55:18.372Z,6.15
2023-02-08T21:57:47.417Z,7.75
2023-02-08T22:00:14.682Z,7.10
2023-02-08T22:02:44.620Z,8.10
2023-02-08T22:05:14.240Z,6.47
2023-02-08T22:07:56.364Z,6.53
2023-02-08T22:10:25.634Z,6.65
2023-02-08T22:12:55.427Z,6.25
2023-02-08T22:15:24.284Z,6.35
2023-02-08T22:18:03.384Z,7.13
2023-02-08T22:20:32.785Z,7.22
2023-02-08T22:22:59.231Z,7.43
2023-02-08T22:25:31.122Z,7.68
2023-02-08T22:28:00.267Z,7.13
2023-02-08T22:30:26.889Z,7.60
2023-02-08T22:32:53.381Z,5.82
2023-02-08T22:35:20.592Z,6.78
2023-02-08T22:37:47.128Z,5.43
2023-02-08T22:40:17.134Z,6.68
2023-02-08T22:42:47.402Z,6.90
2023-02-08T22:45:16.341Z,5.70
2023-02-08T22:47:46.212Z,7.78
2023-02-08T22:50:16.069Z,6.97
2023-02-08T22:52:45.295Z,6.65
2023-02-08T22:55:12.336Z,6.88
2023-02-08T22:57:44.476Z,6.18
2023-02-08T23:00:19.446Z,6.72
2023-02-08T23:02:51.293Z,5.95
2023-02-08T23:05:18.306Z,6.65
2023-02-08T23:07:44.802Z,6.55
2023-02-08T23:10:11.635Z,5.50
2023-02-08T23:12:40.997Z,6.75
2023-02-08T23:15:16.455Z,6.65
2023-02-08T23:17:43.400Z,5.93
2023-02-08T23:20:10.406Z,6.25
2023-02-08T23:22:37.786Z,5.93
2023-02-08T23:25:05.051Z,5.18
2023-02-08T23:27:41.503Z,5.85
2023-02-08T23:30:10.355Z,5.38
2023-02-08T23:32:39.901Z,6.72
2023-02-08T23:35:11.553Z,5.32
2023-02-08T23:37:38.170Z,5.97
2023-02-08T23:40:07.510Z,5.95
2023-02-08T23:42:34.098Z,5.68
2023-02-08T23:45:01.368Z,6.50
2023-02-08T23:47:40.392Z,5.28
2023-02-08T23:50:19.160Z,5.18
2023-02-08T23:52:45.689Z,5.57
2023-02-08T23:55:12.352Z,5.93
2023-02-08T23:57:42.722Z,6.22
